Airfield :
LOGIN :

Register | Disclaimer

   EN    FR    IT 

 










Legend :    VFR   Marginal VFR   IFR   Intensive IFR   Very Intensive IFR
Visi :
Ceiling :
>= 8 km
>= 3000ft
5 to 8 km
1000 to 3000 ft
1500m to 5 km
500 to 1000 ft
800 to 1500m
200 to 500 ft
< 800m
< 200 ft
Symbols :   Thunderstorms  Fog  Heavy snow  Heavy precipitations  Wind > 20 kt
SIGMETs :     Misc.  Thunderstorms  Icing  Turbulence  Mountain Waves  Volcanic Ashes







- Airport Elevation : 204 ft
- IATA code : AGF
- Download approach charts


LFBA - Agen

CURRENT METAR :
  • 170200Z AUTO 28007KT 240V310 9999 SCT031/// BKN039/// BKN062/// ///TCU 08/06 Q1023

EXPIRED METARs :
  • 170130Z AUTO 27006KT 230V290 CAVOK 07/05 Q1023
  • 170100Z AUTO 27006KT CAVOK 08/05 Q1022
  • 170030Z AUTO 26007KT 230V290 9999 ///TCU 08/06 Q1022
  • 170000Z AUTO 26010KT 9999 -RA FEW036/// BKN056/// BKN070/// ///CB 08/06 Q1022
  • 162330Z AUTO 26008KT 230V290 9999 ///TCU 08/06 Q1021

TAF TAF LFBA
Valid from the 16 at 18:00 until the 17 at 03:00 UTC


161700Z 1618/1703 25010KT 9999 BKN030
PROB30
TEMPO 1618/1703 26015G25KT 1500 SHRA BKN014 BKN020TCU
No reported NOTAMs for that airfield.
1 SIGMET reported for the Bordeaux FIR (LFBB) :
 
Severe turbulence
LFBB SIGMET 3 VALID 170000/170400 LFPW
LFBB BORDEAUX FIR/UIR SEV TURB FCST SE OF LINE N4330 E00245 - N4230 E00115 SFC/FL060 STNR NC=



MET'MAP, your aeronautical weather chart ! - Copyright ORBIFLY December 2007 - Disclaimer

ORBIFLY MET'MAP TEAM :

Programming & Development : Alexandra Zaïnal
Concept & Development : Baudouin d'Aumeries
Co-Development & Prog : Marc-Olivier Méhu
Technical & hardware support : Manuel Goepfert

Contact : metmap@orbifly.com




SOURCES & CREDITS :

   NOAA